sensor_id;sensor_type;location;lat;lon;timestamp;P1;durP1;ratioP1;P2;durP2;ratioP2
22995;SDS011;11664;49.774;8.650;2023-06-22T00:00:59;6.00;;;5.40;;
22995;SDS011;11664;49.774;8.650;2023-06-22T00:06:25;7.43;;;6.43;;
22995;SDS011;11664;49.774;8.650;2023-06-22T00:09:06;8.80;;;7.97;;
22995;SDS011;11664;49.774;8.650;2023-06-22T00:11:32;8.00;;;7.03;;
22995;SDS011;11664;49.774;8.650;2023-06-22T00:13:58;8.07;;;7.28;;
22995;SDS011;11664;49.774;8.650;2023-06-22T00:16:24;7.82;;;6.93;;
22995;SDS011;11664;49.774;8.650;2023-06-22T00:19:02;8.23;;;6.80;;
22995;SDS011;11664;49.774;8.650;2023-06-22T00:21:33;7.53;;;6.85;;
22995;SDS011;11664;49.774;8.650;2023-06-22T00:23:59;7.82;;;7.13;;
22995;SDS011;11664;49.774;8.650;2023-06-22T00:26:24;6.95;;;6.25;;
22995;SDS011;11664;49.774;8.650;2023-06-22T00:28:53;9.32;;;6.55;;
22995;SDS011;11664;49.774;8.650;2023-06-22T00:31:25;7.63;;;6.78;;
22995;SDS011;11664;49.774;8.650;2023-06-22T00:36:16;8.13;;;7.38;;
22995;SDS011;11664;49.774;8.650;2023-06-22T00:38:42;9.65;;;8.75;;
22995;SDS011;11664;49.774;8.650;2023-06-22T00:41:08;7.93;;;7.13;;
22995;SDS011;11664;49.774;8.650;2023-06-22T00:43:46;8.77;;;7.10;;
22995;SDS011;11664;49.774;8.650;2023-06-22T00:46:11;7.85;;;6.30;;
22995;SDS011;11664;49.774;8.650;2023-06-22T00:48:37;10.57;;;9.68;;
22995;SDS011;11664;49.774;8.650;2023-06-22T00:51:06;11.07;;;10.07;;
22995;SDS011;11664;49.774;8.650;2023-06-22T00:53:34;8.93;;;8.10;;
22995;SDS011;11664;49.774;8.650;2023-06-22T00:56:02;8.60;;;7.75;;
22995;SDS011;11664;49.774;8.650;2023-06-22T00:58:31;8.85;;;7.95;;
22995;SDS011;11664;49.774;8.650;2023-06-22T01:00:57;10.15;;;9.15;;
22995;SDS011;11664;49.774;8.650;2023-06-22T01:03:23;12.48;;;11.30;;
22995;SDS011;11664;49.774;8.650;2023-06-22T01:05:48;10.52;;;9.50;;
22995;SDS011;11664;49.774;8.650;2023-06-22T01:16:40;36.83;;;34.42;;
22995;SDS011;11664;49.774;8.650;2023-06-22T01:22:12;108.53;;;102.13;;
22995;SDS011;11664;49.774;8.650;2023-06-22T01:27:53;59.10;;;55.53;;
22995;SDS011;11664;49.774;8.650;2023-06-22T01:30:37;48.90;;;45.63;;
22995;SDS011;11664;49.774;8.650;2023-06-22T01:36:26;24.27;;;22.45;;
22995;SDS011;11664;49.774;8.650;2023-06-22T01:38:56;23.73;;;21.80;;
22995;SDS011;11664;49.774;8.650;2023-06-22T01:41:36;24.40;;;22.63;;
22995;SDS011;11664;49.774;8.650;2023-06-22T01:44:09;33.17;;;30.70;;
22995;SDS011;11664;49.774;8.650;2023-06-22T01:46:35;49.05;;;45.40;;
22995;SDS011;11664;49.774;8.650;2023-06-22T01:49:14;28.05;;;26.10;;
22995;SDS011;11664;49.774;8.650;2023-06-22T01:51:40;30.15;;;28.23;;
22995;SDS011;11664;49.774;8.650;2023-06-22T01:54:12;25.15;;;23.45;;
22995;SDS011;11664;49.774;8.650;2023-06-22T01:59:11;25.13;;;23.43;;
22995;SDS011;11664;49.774;8.650;2023-06-22T02:02:09;30.23;;;28.15;;
22995;SDS011;11664;49.774;8.650;2023-06-22T02:04:47;28.90;;;26.85;;
22995;SDS011;11664;49.774;8.650;2023-06-22T02:07:27;31.10;;;28.90;;
22995;SDS011;11664;49.774;8.650;2023-06-22T02:09:57;34.00;;;31.70;;
22995;SDS011;11664;49.774;8.650;2023-06-22T02:12:27;30.67;;;28.45;;
22995;SDS011;11664;49.774;8.650;2023-06-22T02:15:00;29.38;;;27.27;;
22995;SDS011;11664;49.774;8.650;2023-06-22T02:17:32;26.02;;;23.73;;
22995;SDS011;11664;49.774;8.650;2023-06-22T02:20:02;27.02;;;25.05;;
22995;SDS011;11664;49.774;8.650;2023-06-22T02:22:36;28.40;;;26.30;;
22995;SDS011;11664;49.774;8.650;2023-06-22T02:25:02;36.03;;;33.75;;
22995;SDS011;11664;49.774;8.650;2023-06-22T02:27:28;58.33;;;53.58;;
22995;SDS011;11664;49.774;8.650;2023-06-22T02:29:53;31.67;;;29.48;;
22995;SDS011;11664;49.774;8.650;2023-06-22T02:32:19;49.70;;;46.53;;
22995;SDS011;11664;49.774;8.650;2023-06-22T02:34:51;25.30;;;23.63;;
22995;SDS011;11664;49.774;8.650;2023-06-22T02:37:23;29.38;;;27.33;;
22995;SDS011;11664;49.774;8.650;2023-06-22T02:40:04;27.33;;;25.42;;
22995;SDS011;11664;49.774;8.650;2023-06-22T02:42:33;20.02;;;18.63;;
22995;SDS011;11664;49.774;8.650;2023-06-22T02:44:58;16.27;;;14.88;;
22995;SDS011;11664;49.774;8.650;2023-06-22T02:47:27;33.25;;;31.00;;
22995;SDS011;11664;49.774;8.650;2023-06-22T02:49:56;32.00;;;29.98;;
22995;SDS011;11664;49.774;8.650;2023-06-22T02:52:21;19.92;;;18.27;;
22995;SDS011;11664;49.774;8.650;2023-06-22T02:54:56;15.82;;;14.43;;
22995;SDS011;11664;49.774;8.650;2023-06-22T02:57:22;21.58;;;20.08;;
22995;SDS011;11664;49.774;8.650;2023-06-22T02:59:54;20.77;;;19.08;;
22995;SDS011;11664;49.774;8.650;2023-06-22T03:08:08;22.15;;;20.42;;
22995;SDS011;11664;49.774;8.650;2023-06-22T03:10:34;17.02;;;15.68;;
22995;SDS011;11664;49.774;8.650;2023-06-22T03:13:02;14.65;;;13.32;;
22995;SDS011;11664;49.774;8.650;2023-06-22T03:15:43;19.38;;;17.95;;
22995;SDS011;11664;49.774;8.650;2023-06-22T03:18:09;16.52;;;15.13;;
22995;SDS011;11664;49.774;8.650;2023-06-22T03:20:37;20.35;;;18.80;;
22995;SDS011;11664;49.774;8.650;2023-06-22T03:23:15;25.58;;;23.73;;
22995;SDS011;11664;49.774;8.650;2023-06-22T03:25:41;20.58;;;18.98;;
22995;SDS011;11664;49.774;8.650;2023-06-22T03:28:12;17.95;;;16.52;;
22995;SDS011;11664;49.774;8.650;2023-06-22T03:30:38;26.92;;;24.83;;
22995;SDS011;11664;49.774;8.650;2023-06-22T03:33:09;15.60;;;14.30;;
22995;SDS011;11664;49.774;8.650;2023-06-22T03:35:35;12.25;;;10.70;;
22995;SDS011;11664;49.774;8.650;2023-06-22T03:38:03;13.15;;;11.88;;
22995;SDS011;11664;49.774;8.650;2023-06-22T03:40:29;13.45;;;12.13;;
22995;SDS011;11664;49.774;8.650;2023-06-22T03:43:01;15.88;;;14.50;;
22995;SDS011;11664;49.774;8.650;2023-06-22T03:45:35;16.15;;;14.75;;
22995;SDS011;11664;49.774;8.650;2023-06-22T03:48:02;13.63;;;12.48;;
22995;SDS011;11664;49.774;8.650;2023-06-22T03:50:30;16.60;;;15.18;;
22995;SDS011;11664;49.774;8.650;2023-06-22T03:53:02;16.15;;;14.98;;
22995;SDS011;11664;49.774;8.650;2023-06-22T03:55:28;20.80;;;19.33;;
22995;SDS011;11664;49.774;8.650;2023-06-22T03:57:54;18.27;;;17.00;;
22995;SDS011;11664;49.774;8.650;2023-06-22T04:00:40;12.68;;;11.50;;
22995;SDS011;11664;49.774;8.650;2023-06-22T04:03:09;14.40;;;13.20;;
22995;SDS011;11664;49.774;8.650;2023-06-22T04:05:34;12.40;;;11.20;;
22995;SDS011;11664;49.774;8.650;2023-06-22T04:08:17;11.63;;;10.68;;
22995;SDS011;11664;49.774;8.650;2023-06-22T04:10:52;10.40;;;9.40;;
22995;SDS011;11664;49.774;8.650;2023-06-22T04:13:21;9.05;;;8.25;;
22995;SDS011;11664;49.774;8.650;2023-06-22T04:15:47;12.35;;;11.23;;
22995;SDS011;11664;49.774;8.650;2023-06-22T04:18:12;9.30;;;8.40;;
22995;SDS011;11664;49.774;8.650;2023-06-22T04:20:44;12.85;;;11.75;;
22995;SDS011;11664;49.774;8.650;2023-06-22T04:23:12;11.32;;;10.32;;
22995;SDS011;11664;49.774;8.650;2023-06-22T04:25:39;12.45;;;11.55;;
22995;SDS011;11664;49.774;8.650;2023-06-22T04:28:04;10.43;;;9.43;;
22995;SDS011;11664;49.774;8.650;2023-06-22T04:30:42;8.18;;;7.38;;
22995;SDS011;11664;49.774;8.650;2023-06-22T04:33:27;11.77;;;10.80;;
22995;SDS011;11664;49.774;8.650;2023-06-22T04:39:22;19.55;;;18.05;;
22995;SDS011;11664;49.774;8.650;2023-06-22T04:41:51;15.55;;;13.60;;
22995;SDS011;11664;49.774;8.650;2023-06-22T04:44:31;21.83;;;20.40;;
22995;SDS011;11664;49.774;8.650;2023-06-22T04:46:58;16.05;;;14.77;;
22995;SDS011;11664;49.774;8.650;2023-06-22T04:49:31;17.52;;;15.93;;
22995;SDS011;11664;49.774;8.650;2023-06-22T04:52:21;18.60;;;17.17;;
22995;SDS011;11664;49.774;8.650;2023-06-22T04:54:47;10.05;;;8.18;;
22995;SDS011;11664;49.774;8.650;2023-06-22T04:57:13;14.50;;;13.35;;
22995;SDS011;11664;49.774;8.650;2023-06-22T04:59:39;9.63;;;7.07;;
22995;SDS011;11664;49.774;8.650;2023-06-22T05:02:06;20.20;;;18.55;;
22995;SDS011;11664;49.774;8.650;2023-06-22T05:04:36;16.95;;;15.60;;
22995;SDS011;11664;49.774;8.650;2023-06-22T05:07:06;15.55;;;14.40;;
22995;SDS011;11664;49.774;8.650;2023-06-22T05:09:35;13.73;;;12.43;;
22995;SDS011;11664;49.774;8.650;2023-06-22T05:12:01;11.32;;;10.40;;
22995;SDS011;11664;49.774;8.650;2023-06-22T05:14:28;12.40;;;11.30;;
22995;SDS011;11664;49.774;8.650;2023-06-22T05:16:54;34.63;;;32.38;;
22995;SDS011;11664;49.774;8.650;2023-06-22T05:19:26;39.28;;;36.75;;
22995;SDS011;11664;49.774;8.650;2023-06-22T05:22:04;21.30;;;19.65;;
22995;SDS011;11664;49.774;8.650;2023-06-22T05:24:31;14.23;;;12.88;;
22995;SDS011;11664;49.774;8.650;2023-06-22T05:26:57;22.27;;;20.55;;
22995;SDS011;11664;49.774;8.650;2023-06-22T05:29:22;29.05;;;27.17;;
22995;SDS011;11664;49.774;8.650;2023-06-22T05:31:48;19.75;;;18.38;;
22995;SDS011;11664;49.774;8.650;2023-06-22T05:34:14;10.45;;;9.52;;
22995;SDS011;11664;49.774;8.650;2023-06-22T05:36:43;11.60;;;10.65;;
22995;SDS011;11664;49.774;8.650;2023-06-22T05:39:12;42.55;;;39.78;;
22995;SDS011;11664;49.774;8.650;2023-06-22T05:41:39;14.45;;;13.35;;
22995;SDS011;11664;49.774;8.650;2023-06-22T05:44:04;31.90;;;29.90;;
22995;SDS011;11664;49.774;8.650;2023-06-22T05:46:33;19.08;;;17.63;;
22995;SDS011;11664;49.774;8.650;2023-06-22T05:48:58;18.30;;;16.88;;
22995;SDS011;11664;49.774;8.650;2023-06-22T05:51:24;23.17;;;21.55;;
22995;SDS011;11664;49.774;8.650;2023-06-22T05:53:49;33.03;;;30.70;;
22995;SDS011;11664;49.774;8.650;2023-06-22T05:56:15;14.85;;;13.55;;
22995;SDS011;11664;49.774;8.650;2023-06-22T05:58:41;48.42;;;45.53;;
22995;SDS011;11664;49.774;8.650;2023-06-22T06:01:07;17.33;;;15.93;;
22995;SDS011;11664;49.774;8.650;2023-06-22T06:03:32;19.02;;;17.52;;
22995;SDS011;11664;49.774;8.650;2023-06-22T06:05:58;45.70;;;42.90;;
22995;SDS011;11664;49.774;8.650;2023-06-22T06:08:23;59.63;;;56.30;;
22995;SDS011;11664;49.774;8.650;2023-06-22T06:10:49;23.17;;;21.35;;
22995;SDS011;11664;49.774;8.650;2023-06-22T06:13:17;22.27;;;20.67;;
22995;SDS011;11664;49.774;8.650;2023-06-22T06:15:43;17.63;;;16.23;;
22995;SDS011;11664;49.774;8.650;2023-06-22T06:18:09;14.02;;;10.43;;
22995;SDS011;11664;49.774;8.650;2023-06-22T06:20:34;14.38;;;8.00;;
22995;SDS011;11664;49.774;8.650;2023-06-22T06:23:00;16.48;;;14.75;;
22995;SDS011;11664;49.774;8.650;2023-06-22T06:25:26;14.85;;;13.55;;
22995;SDS011;11664;49.774;8.650;2023-06-22T06:27:55;15.02;;;13.63;;
22995;SDS011;11664;49.774;8.650;2023-06-22T06:30:21;9.65;;;8.75;;
22995;SDS011;11664;49.774;8.650;2023-06-22T06:32:47;12.38;;;11.30;;
22995;SDS011;11664;49.774;8.650;2023-06-22T06:35:19;12.20;;;10.95;;
22995;SDS011;11664;49.774;8.650;2023-06-22T06:37:46;13.35;;;12.10;;
22995;SDS011;11664;49.774;8.650;2023-06-22T06:40:13;13.30;;;12.15;;
22995;SDS011;11664;49.774;8.650;2023-06-22T06:42:43;11.63;;;9.48;;
22995;SDS011;11664;49.774;8.650;2023-06-22T06:45:20;12.13;;;8.43;;
22995;SDS011;11664;49.774;8.650;2023-06-22T06:47:48;11.82;;;10.63;;
22995;SDS011;11664;49.774;8.650;2023-06-22T06:50:17;24.08;;;22.40;;
22995;SDS011;11664;49.774;8.650;2023-06-22T06:52:46;12.40;;;11.25;;
22995;SDS011;11664;49.774;8.650;2023-06-22T06:55:12;20.65;;;19.05;;
22995;SDS011;11664;49.774;8.650;2023-06-22T06:57:39;13.90;;;12.32;;
22995;SDS011;11664;49.774;8.650;2023-06-22T07:00:05;15.40;;;13.15;;
22995;SDS011;11664;49.774;8.650;2023-06-22T07:02:42;18.95;;;17.40;;
22995;SDS011;11664;49.774;8.650;2023-06-22T07:05:08;19.23;;;17.83;;
22995;SDS011;11664;49.774;8.650;2023-06-22T07:07:37;19.75;;;18.33;;
22995;SDS011;11664;49.774;8.650;2023-06-22T07:10:04;22.92;;;21.38;;
22995;SDS011;11664;49.774;8.650;2023-06-22T07:12:30;27.95;;;26.05;;
22995;SDS011;11664;49.774;8.650;2023-06-22T07:15:06;28.85;;;26.90;;
22995;SDS011;11664;49.774;8.650;2023-06-22T07:17:34;22.73;;;20.83;;
22995;SDS011;11664;49.774;8.650;2023-06-22T07:20:00;24.83;;;22.95;;
22995;SDS011;11664;49.774;8.650;2023-06-22T07:22:27;12.10;;;11.05;;
22995;SDS011;11664;49.774;8.650;2023-06-22T07:24:52;13.82;;;12.10;;
22995;SDS011;11664;49.774;8.650;2023-06-22T07:27:21;12.48;;;11.27;;
22995;SDS011;11664;49.774;8.650;2023-06-22T07:29:46;12.35;;;10.98;;
22995;SDS011;11664;49.774;8.650;2023-06-22T07:32:12;17.95;;;16.50;;
22995;SDS011;11664;49.774;8.650;2023-06-22T07:34:38;12.55;;;11.50;;
22995;SDS011;11664;49.774;8.650;2023-06-22T07:37:03;12.10;;;10.68;;
22995;SDS011;11664;49.774;8.650;2023-06-22T07:39:30;15.40;;;14.00;;
22995;SDS011;11664;49.774;8.650;2023-06-22T07:41:55;15.82;;;14.40;;
22995;SDS011;11664;49.774;8.650;2023-06-22T07:44:21;13.30;;;12.13;;
22995;SDS011;11664;49.774;8.650;2023-06-22T07:46:46;19.60;;;18.10;;
22995;SDS011;11664;49.774;8.650;2023-06-22T07:49:12;28.48;;;26.52;;
22995;SDS011;11664;49.774;8.650;2023-06-22T07:51:37;66.75;;;62.80;;
22995;SDS011;11664;49.774;8.650;2023-06-22T07:54:03;81.75;;;77.00;;
22995;SDS011;11664;49.774;8.650;2023-06-22T07:56:28;29.13;;;27.02;;
22995;SDS011;11664;49.774;8.650;2023-06-22T07:58:57;50.83;;;47.72;;
22995;SDS011;11664;49.774;8.650;2023-06-22T08:01:24;86.55;;;81.72;;
22995;SDS011;11664;49.774;8.650;2023-06-22T08:03:49;38.83;;;36.33;;
22995;SDS011;11664;49.774;8.650;2023-06-22T08:06:15;139.63;;;132.10;;
22995;SDS011;11664;49.774;8.650;2023-06-22T08:08:43;82.63;;;77.70;;
22995;SDS011;11664;49.774;8.650;2023-06-22T08:11:16;80.43;;;75.97;;
22995;SDS011;11664;49.774;8.650;2023-06-22T08:13:41;48.75;;;45.85;;
22995;SDS011;11664;49.774;8.650;2023-06-22T08:16:10;39.50;;;37.00;;
22995;SDS011;11664;49.774;8.650;2023-06-22T08:18:35;24.67;;;22.83;;
22995;SDS011;11664;49.774;8.650;2023-06-22T08:21:02;22.63;;;20.70;;
22995;SDS011;11664;49.774;8.650;2023-06-22T08:23:27;27.05;;;25.13;;
22995;SDS011;11664;49.774;8.650;2023-06-22T08:25:53;15.50;;;14.25;;
22995;SDS011;11664;49.774;8.650;2023-06-22T08:28:18;16.95;;;15.63;;
22995;SDS011;11664;49.774;8.650;2023-06-22T08:30:45;12.95;;;11.85;;
22995;SDS011;11664;49.774;8.650;2023-06-22T08:33:11;12.50;;;11.30;;
22995;SDS011;11664;49.774;8.650;2023-06-22T08:35:37;14.02;;;12.77;;
22995;SDS011;11664;49.774;8.650;2023-06-22T08:38:09;13.93;;;12.65;;
22995;SDS011;11664;49.774;8.650;2023-06-22T08:40:35;11.45;;;10.45;;
22995;SDS011;11664;49.774;8.650;2023-06-22T08:43:04;10.52;;;9.52;;
22995;SDS011;11664;49.774;8.650;2023-06-22T08:45:30;11.18;;;10.15;;
22995;SDS011;11664;49.774;8.650;2023-06-22T08:47:56;11.95;;;10.90;;
22995;SDS011;11664;49.774;8.650;2023-06-22T08:50:21;15.32;;;14.05;;
22995;SDS011;11664;49.774;8.650;2023-06-22T08:52:47;26.27;;;24.48;;
22995;SDS011;11664;49.774;8.650;2023-06-22T08:55:12;22.33;;;20.73;;
22995;SDS011;11664;49.774;8.650;2023-06-22T08:57:39;18.70;;;17.20;;
22995;SDS011;11664;49.774;8.650;2023-06-22T09:00:09;14.43;;;13.40;;
22995;SDS011;11664;49.774;8.650;2023-06-22T09:02:45;13.07;;;11.05;;
22995;SDS011;11664;49.774;8.650;2023-06-22T09:05:12;12.48;;;11.35;;
22995;SDS011;11664;49.774;8.650;2023-06-22T09:07:38;11.75;;;10.57;;
22995;SDS011;11664;49.774;8.650;2023-06-22T09:10:03;14.00;;;10.30;;
22995;SDS011;11664;49.774;8.650;2023-06-22T09:12:30;13.82;;;12.15;;
22995;SDS011;11664;49.774;8.650;2023-06-22T09:14:57;14.43;;;13.18;;
22995;SDS011;11664;49.774;8.650;2023-06-22T09:17:25;14.98;;;13.68;;
22995;SDS011;11664;49.774;8.650;2023-06-22T09:19:51;15.02;;;13.80;;
22995;SDS011;11664;49.774;8.650;2023-06-22T09:22:19;13.75;;;12.63;;
22995;SDS011;11664;49.774;8.650;2023-06-22T09:24:45;12.13;;;10.95;;
22995;SDS011;11664;49.774;8.650;2023-06-22T09:27:11;14.52;;;13.38;;
22995;SDS011;11664;49.774;8.650;2023-06-22T09:29:36;14.48;;;13.27;;
22995;SDS011;11664;49.774;8.650;2023-06-22T09:32:02;11.98;;;10.88;;
22995;SDS011;11664;49.774;8.650;2023-06-22T09:34:28;10.00;;;8.57;;
22995;SDS011;11664;49.774;8.650;2023-06-22T09:36:57;8.50;;;7.75;;
22995;SDS011;11664;49.774;8.650;2023-06-22T09:39:25;8.85;;;7.90;;
22995;SDS011;11664;49.774;8.650;2023-06-22T09:41:50;8.90;;;7.15;;
22995;SDS011;11664;49.774;8.650;2023-06-22T09:44:16;9.48;;;8.43;;
22995;SDS011;11664;49.774;8.650;2023-06-22T09:46:41;9.43;;;8.52;;
22995;SDS011;11664;49.774;8.650;2023-06-22T09:49:13;10.32;;;7.85;;
22995;SDS011;11664;49.774;8.650;2023-06-22T09:51:39;8.68;;;7.85;;
22995;SDS011;11664;49.774;8.650;2023-06-22T09:54:04;14.60;;;9.50;;
22995;SDS011;11664;49.774;8.650;2023-06-22T09:56:30;9.50;;;8.50;;
22995;SDS011;11664;49.774;8.650;2023-06-22T09:58:56;9.60;;;8.68;;
22995;SDS011;11664;49.774;8.650;2023-06-22T10:01:22;10.77;;;9.52;;
22995;SDS011;11664;49.774;8.650;2023-06-22T10:03:47;14.13;;;12.77;;
22995;SDS011;11664;49.774;8.650;2023-06-22T10:06:16;16.70;;;15.25;;
22995;SDS011;11664;49.774;8.650;2023-06-22T10:08:41;12.18;;;11.27;;
22995;SDS011;11664;49.774;8.650;2023-06-22T10:11:07;11.15;;;10.15;;
22995;SDS011;11664;49.774;8.650;2023-06-22T10:13:33;11.10;;;9.85;;
22995;SDS011;11664;49.774;8.650;2023-06-22T10:15:58;10.02;;;8.27;;
22995;SDS011;11664;49.774;8.650;2023-06-22T10:18:24;8.80;;;7.93;;
22995;SDS011;11664;49.774;8.650;2023-06-22T10:20:50;8.55;;;6.80;;
22995;SDS011;11664;49.774;8.650;2023-06-22T10:23:17;9.27;;;7.22;;
22995;SDS011;11664;49.774;8.650;2023-06-22T10:25:44;11.02;;;8.45;;
22995;SDS011;11664;49.774;8.650;2023-06-22T10:28:12;8.90;;;8.07;;
22995;SDS011;11664;49.774;8.650;2023-06-22T10:30:41;9.27;;;7.10;;
22995;SDS011;11664;49.774;8.650;2023-06-22T10:33:08;9.07;;;8.27;;
22995;SDS011;11664;49.774;8.650;2023-06-22T10:35:34;8.27;;;7.40;;
22995;SDS011;11664;49.774;8.650;2023-06-22T10:38:02;8.52;;;6.63;;
22995;SDS011;11664;49.774;8.650;2023-06-22T10:40:28;8.48;;;7.07;;
22995;SDS011;11664;49.774;8.650;2023-06-22T10:42:54;10.88;;;8.68;;
22995;SDS011;11664;49.774;8.650;2023-06-22T10:45:22;10.70;;;9.82;;
22995;SDS011;11664;49.774;8.650;2023-06-22T10:47:48;13.00;;;11.98;;
22995;SDS011;11664;49.774;8.650;2023-06-22T10:50:17;10.07;;;9.00;;
22995;SDS011;11664;49.774;8.650;2023-06-22T10:52:43;13.10;;;12.00;;
22995;SDS011;11664;49.774;8.650;2023-06-22T10:55:09;12.63;;;11.60;;
22995;SDS011;11664;49.774;8.650;2023-06-22T10:57:35;10.85;;;9.98;;
22995;SDS011;11664;49.774;8.650;2023-06-22T11:00:01;10.30;;;9.38;;
22995;SDS011;11664;49.774;8.650;2023-06-22T11:02:30;10.23;;;9.35;;
22995;SDS011;11664;49.774;8.650;2023-06-22T11:04:56;17.35;;;15.65;;
22995;SDS011;11664;49.774;8.650;2023-06-22T11:07:25;12.30;;;11.10;;
22995;SDS011;11664;49.774;8.650;2023-06-22T11:09:52;10.75;;;7.97;;
22995;SDS011;11664;49.774;8.650;2023-06-22T11:12:18;8.10;;;7.22;;
22995;SDS011;11664;49.774;8.650;2023-06-22T11:14:43;11.32;;;9.50;;
22995;SDS011;11664;49.774;8.650;2023-06-22T11:17:12;10.55;;;8.75;;
22995;SDS011;11664;49.774;8.650;2023-06-22T11:19:37;10.07;;;8.05;;
22995;SDS011;11664;49.774;8.650;2023-06-22T11:22:03;11.13;;;7.80;;
22995;SDS011;11664;49.774;8.650;2023-06-22T11:24:34;10.07;;;7.32;;
22995;SDS011;11664;49.774;8.650;2023-06-22T11:27:00;11.70;;;8.00;;
22995;SDS011;11664;49.774;8.650;2023-06-22T11:29:25;8.52;;;7.65;;
22995;SDS011;11664;49.774;8.650;2023-06-22T11:31:57;8.07;;;7.25;;
22995;SDS011;11664;49.774;8.650;2023-06-22T11:34:22;10.18;;;6.85;;
22995;SDS011;11664;49.774;8.650;2023-06-22T11:36:48;6.60;;;5.85;;
22995;SDS011;11664;49.774;8.650;2023-06-22T11:39:13;9.13;;;6.78;;
22995;SDS011;11664;49.774;8.650;2023-06-22T11:41:43;9.05;;;6.30;;
22995;SDS011;11664;49.774;8.650;2023-06-22T11:44:08;11.30;;;6.65;;
22995;SDS011;11664;49.774;8.650;2023-06-22T11:46:40;8.80;;;7.30;;
22995;SDS011;11664;49.774;8.650;2023-06-22T11:49:05;7.88;;;6.03;;
22995;SDS011;11664;49.774;8.650;2023-06-22T11:51:31;10.95;;;9.90;;
22995;SDS011;11664;49.774;8.650;2023-06-22T11:53:56;13.18;;;12.07;;
22995;SDS011;11664;49.774;8.650;2023-06-22T11:56:22;8.38;;;6.57;;
22995;SDS011;11664;49.774;8.650;2023-06-22T11:58:48;8.20;;;6.63;;
22995;SDS011;11664;49.774;8.650;2023-06-22T12:01:13;7.38;;;6.65;;
22995;SDS011;11664;49.774;8.650;2023-06-22T12:03:46;8.93;;;6.80;;
22995;SDS011;11664;49.774;8.650;2023-06-22T12:06:14;9.73;;;7.20;;
22995;SDS011;11664;49.774;8.650;2023-06-22T12:08:40;8.85;;;7.97;;
22995;SDS011;11664;49.774;8.650;2023-06-22T12:11:05;11.60;;;7.78;;
22995;SDS011;11664;49.774;8.650;2023-06-22T12:13:31;9.77;;;6.57;;
22995;SDS011;11664;49.774;8.650;2023-06-22T12:15:56;7.88;;;5.88;;
22995;SDS011;11664;49.774;8.650;2023-06-22T12:18:22;8.57;;;6.43;;
22995;SDS011;11664;49.774;8.650;2023-06-22T12:20:53;6.05;;;5.45;;
22995;SDS011;11664;49.774;8.650;2023-06-22T12:23:19;9.13;;;6.22;;
22995;SDS011;11664;49.774;8.650;2023-06-22T12:25:44;12.18;;;7.32;;
22995;SDS011;11664;49.774;8.650;2023-06-22T12:28:13;9.30;;;7.00;;
22995;SDS011;11664;49.774;8.650;2023-06-22T12:30:45;7.00;;;6.30;;
22995;SDS011;11664;49.774;8.650;2023-06-22T12:33:10;10.85;;;7.32;;
22995;SDS011;11664;49.774;8.650;2023-06-22T12:35:36;8.88;;;6.90;;
22995;SDS011;11664;49.774;8.650;2023-06-22T12:38:01;10.55;;;6.70;;
22995;SDS011;11664;49.774;8.650;2023-06-22T12:40:28;9.23;;;6.30;;
22995;SDS011;11664;49.774;8.650;2023-06-22T12:42:56;7.10;;;6.40;;
22995;SDS011;11664;49.774;8.650;2023-06-22T12:48:16;7.53;;;6.75;;
22995;SDS011;11664;49.774;8.650;2023-06-22T12:50:41;9.27;;;7.35;;
22995;SDS011;11664;49.774;8.650;2023-06-22T12:53:07;9.85;;;6.35;;
22995;SDS011;11664;49.774;8.650;2023-06-22T12:55:33;8.95;;;5.30;;
22995;SDS011;11664;49.774;8.650;2023-06-22T12:57:58;6.05;;;5.45;;
22995;SDS011;11664;49.774;8.650;2023-06-22T13:00:27;6.10;;;5.03;;
22995;SDS011;11664;49.774;8.650;2023-06-22T13:02:55;8.10;;;5.50;;
22995;SDS011;11664;49.774;8.650;2023-06-22T13:05:21;11.88;;;6.50;;
22995;SDS011;11664;49.774;8.650;2023-06-22T13:07:46;7.50;;;6.55;;
22995;SDS011;11664;49.774;8.650;2023-06-22T13:10:15;12.52;;;6.80;;
22995;SDS011;11664;49.774;8.650;2023-06-22T13:12:40;7.68;;;6.88;;
22995;SDS011;11664;49.774;8.650;2023-06-22T13:15:06;7.78;;;6.97;;
22995;SDS011;11664;49.774;8.650;2023-06-22T13:17:32;9.90;;;7.45;;
22995;SDS011;11664;49.774;8.650;2023-06-22T13:20:01;7.32;;;6.57;;
22995;SDS011;11664;49.774;8.650;2023-06-22T13:22:35;9.38;;;5.72;;
22995;SDS011;11664;49.774;8.650;2023-06-22T13:25:08;6.53;;;5.50;;
22995;SDS011;11664;49.774;8.650;2023-06-22T13:27:40;6.28;;;4.90;;
22995;SDS011;11664;49.774;8.650;2023-06-22T13:30:07;11.27;;;6.40;;
22995;SDS011;11664;49.774;8.650;2023-06-22T13:32:33;9.45;;;5.82;;
22995;SDS011;11664;49.774;8.650;2023-06-22T13:34:59;9.07;;;6.80;;
22995;SDS011;11664;49.774;8.650;2023-06-22T13:37:25;7.38;;;6.55;;
22995;SDS011;11664;49.774;8.650;2023-06-22T13:39:51;7.68;;;6.10;;
22995;SDS011;11664;49.774;8.650;2023-06-22T13:42:21;11.38;;;8.32;;
22995;SDS011;11664;49.774;8.650;2023-06-22T13:44:46;7.28;;;6.20;;
22995;SDS011;11664;49.774;8.650;2023-06-22T13:47:15;14.98;;;8.02;;
22995;SDS011;11664;49.774;8.650;2023-06-22T13:49:40;10.25;;;6.72;;
22995;SDS011;11664;49.774;8.650;2023-06-22T13:52:15;7.85;;;7.07;;
22995;SDS011;11664;49.774;8.650;2023-06-22T13:54:43;12.52;;;8.35;;
22995;SDS011;11664;49.774;8.650;2023-06-22T13:57:09;10.32;;;6.88;;
22995;SDS011;11664;49.774;8.650;2023-06-22T13:59:41;9.55;;;5.53;;
22995;SDS011;11664;49.774;8.650;2023-06-22T14:02:12;9.60;;;5.15;;
22995;SDS011;11664;49.774;8.650;2023-06-22T14:04:38;7.18;;;5.10;;
22995;SDS011;11664;49.774;8.650;2023-06-22T14:07:07;8.88;;;5.32;;
22995;SDS011;11664;49.774;8.650;2023-06-22T14:09:32;9.25;;;5.15;;
22995;SDS011;11664;49.774;8.650;2023-06-22T14:11:59;14.25;;;5.47;;
22995;SDS011;11664;49.774;8.650;2023-06-22T14:14:28;6.80;;;5.22;;
22995;SDS011;11664;49.774;8.650;2023-06-22T14:16:53;6.22;;;5.57;;
22995;SDS011;11664;49.774;8.650;2023-06-22T14:19:19;12.35;;;7.32;;
22995;SDS011;11664;49.774;8.650;2023-06-22T14:21:44;10.15;;;6.03;;
22995;SDS011;11664;49.774;8.650;2023-06-22T14:24:10;9.65;;;5.60;;
22995;SDS011;11664;49.774;8.650;2023-06-22T14:26:38;6.13;;;4.90;;
22995;SDS011;11664;49.774;8.650;2023-06-22T14:29:04;8.05;;;5.65;;
22995;SDS011;11664;49.774;8.650;2023-06-22T14:31:29;6.90;;;4.72;;
22995;SDS011;11664;49.774;8.650;2023-06-22T14:33:55;9.00;;;5.10;;
22995;SDS011;11664;49.774;8.650;2023-06-22T14:36:20;7.07;;;5.03;;
22995;SDS011;11664;49.774;8.650;2023-06-22T14:38:46;6.70;;;5.88;;
22995;SDS011;11664;49.774;8.650;2023-06-22T14:41:14;11.45;;;5.28;;
22995;SDS011;11664;49.774;8.650;2023-06-22T14:43:45;8.07;;;5.13;;
22995;SDS011;11664;49.774;8.650;2023-06-22T14:46:12;13.10;;;6.25;;
22995;SDS011;11664;49.774;8.650;2023-06-22T14:48:42;6.87;;;4.87;;
22995;SDS011;11664;49.774;8.650;2023-06-22T14:51:08;6.93;;;4.93;;
22995;SDS011;11664;49.774;8.650;2023-06-22T14:53:34;5.95;;;5.38;;
22995;SDS011;11664;49.774;8.650;2023-06-22T14:56:00;7.78;;;5.25;;
22995;SDS011;11664;49.774;8.650;2023-06-22T14:58:27;9.45;;;5.40;;
22995;SDS011;11664;49.774;8.650;2023-06-22T15:00:53;10.88;;;5.35;;
22995;SDS011;11664;49.774;8.650;2023-06-22T15:06:25;7.10;;;5.65;;
22995;SDS011;11664;49.774;8.650;2023-06-22T15:08:52;6.78;;;6.07;;
22995;SDS011;11664;49.774;8.650;2023-06-22T15:11:17;10.05;;;6.70;;
22995;SDS011;11664;49.774;8.650;2023-06-22T15:13:43;7.53;;;5.13;;
22995;SDS011;11664;49.774;8.650;2023-06-22T15:16:08;8.70;;;5.28;;